Time;durP1;ratioP1;P1;durP2;ratioP2;P2;SDS_P1;SDS_P2;PMS_P1;PMS_P2;Temp;Humidity;BMP_temperature;BMP_pressure;BME280_temperature;BME280_humidity;BME280_pressure;Samples;Min_cycle;Max_cycle;Signal;HPM_P1;HPM_P2
2022/08/02 00:00:14;;;;;;;;;3.00;2.00;;;;;24.05;47.76;101270.28;5063048;28;46270;-59
2022/08/02 00:02:43;;;;;;;;;3.75;2.25;;;;;24.06;48.22;101268.44;5077056;28;45709;-59
2022/08/02 00:05:09;;;;;;;;;3.00;3.00;;;;;24.05;49.07;101270.28;5071083;28;45447;-58
2022/08/02 00:07:34;;;;;;;;;3.00;2.00;;;;;24.03;48.43;101272.22;5077293;28;45484;-58
2022/08/02 00:10:00;;;;;;;;;4.00;2.75;;;;;24.03;47.70;101271.38;5067108;28;46954;-59
2022/08/02 00:12:25;;;;;;;;;3.00;2.75;;;;;23.99;48.64;101268.09;5077036;27;66299;-59
2022/08/02 00:14:51;;;;;;;;;2.75;2.75;;;;;23.96;48.04;101259.44;5074788;27;45431;-59
2022/08/02 00:17:16;;;;;;;;;2.50;2.50;;;;;23.91;47.50;101269.63;5061541;27;52862;-59
2022/08/02 00:19:41;;;;;;;;;3.25;3.25;;;;;23.86;47.98;101264.59;5062562;28;46972;-59
2022/08/02 00:22:07;;;;;;;;;3.50;2.00;;;;;23.81;48.06;101261.41;5064733;27;50037;-58
2022/08/02 00:24:32;;;;;;;;;1.00;1.00;;;;;23.78;47.26;101259.81;5075034;27;69101;-59
2022/08/02 00:26:58;;;;;;;;;3.25;1.75;;;;;23.76;48.76;101264.44;5067537;27;45354;-58
2022/08/02 00:29:23;;;;;;;;;3.00;3.00;;;;;23.74;48.51;101257.47;5070102;27;46096;-58
2022/08/02 00:31:49;;;;;;;;;3.50;2.00;;;;;23.71;48.05;101258.56;5070437;27;45492;-59
2022/08/02 00:34:14;;;;;;;;;3.00;3.00;;;;;23.72;47.64;101254.06;5065176;27;61168;-59
2022/08/02 00:36:40;;;;;;;;;1.50;1.50;;;;;23.72;48.40;101256.75;5073222;27;45350;-59
2022/08/02 00:39:05;;;;;;;;;4.00;2.75;;;;;23.73;47.88;101258.41;5073024;28;45550;-59
2022/08/02 00:41:30;;;;;;;;;3.00;1.75;;;;;23.73;47.91;101259.31;5063646;27;59486;-59
2022/08/02 00:43:56;;;;;;;;;4.00;2.75;;;;;23.74;47.83;101262.81;5064593;27;47856;-59
2022/08/02 00:46:21;;;;;;;;;4.00;1.50;;;;;23.73;47.45;101255.75;5077992;27;45476;-59
2022/08/02 00:48:47;;;;;;;;;2.00;1.00;;;;;23.69;49.09;101256.00;5066350;27;75807;-60
2022/08/02 00:51:13;;;;;;;;;3.75;3.00;;;;;23.68;48.07;101248.94;5065473;27;45207;-60
2022/08/02 00:53:38;;;;;;;;;2.50;2.50;;;;;23.68;48.05;101262.31;5060317;28;45333;-60
2022/08/02 00:56:04;;;;;;;;;2.00;2.00;;;;;23.68;48.04;101259.63;5064347;27;67755;-59
2022/08/02 00:58:29;;;;;;;;;4.25;3.50;;;;;23.65;48.11;101265.19;5065240;28;45420;-59
2022/08/02 01:00:56;;;;;;;;;4.25;1.75;;;;;23.64;49.33;101262.66;5075160;27;67613;-59
2022/08/02 01:03:22;;;;;;;;;4.25;3.25;;;;;23.63;47.67;101267.13;5073713;28;45372;-59
2022/08/02 01:05:48;;;;;;;;;2.75;1.25;;;;;23.62;48.19;101262.78;5067939;27;45747;-59
2022/08/02 01:08:13;;;;;;;;;2.00;2.00;;;;;23.59;48.41;101263.00;5082295;27;69014;-59
2022/08/02 01:10:38;;;;;;;;;2.00;2.00;;;;;23.56;48.04;101265.03;5069702;27;63019;-60
2022/08/02 01:13:04;;;;;;;;;3.00;2.00;;;;;23.51;47.68;101262.69;5079989;27;45433;-59
2022/08/02 01:15:29;;;;;;;;;2.00;2.00;;;;;23.44;47.68;101267.66;5068956;28;70298;-59
2022/08/02 01:18:08;;;;;;;;;11.50;8.00;;;;;23.39;48.08;101267.13;5072670;28;45665;-59
2022/08/02 01:20:52;;;;;;;;;6.75;5.50;;;;;23.35;48.50;101265.63;5068621;27;45321;-59
2022/08/02 01:23:55;;;;;;;;;4.00;3.00;;;;;23.29;48.31;101266.94;5074486;27;45177;-60
2022/08/02 01:26:20;;;;;;;;;3.75;3.00;;;;;23.27;48.45;101270.69;5064754;28;45342;-60
2022/08/02 01:29:06;;;;;;;;;4.00;1.50;;;;;23.24;49.15;101266.41;5069743;28;46296;-59
2022/08/02 01:31:37;;;;;;;;;2.75;1.50;;;;;23.23;48.72;101272.72;5076540;28;45880;-59
2022/08/02 01:34:16;;;;;;;;;2.75;2.00;;;;;23.20;48.51;101278.28;5060201;28;45328;-58
2022/08/02 01:37:21;;;;;;;;;4.00;4.00;;;;;23.20;49.16;101280.94;5055810;28;45412;-58
2022/08/02 01:39:54;;;;;;;;;3.00;2.00;;;;;23.19;49.21;101281.91;5071189;27;45299;-58
2022/08/02 01:42:20;;;;;;;;;6.00;4.00;;;;;23.17;48.78;101278.50;5074856;27;45720;-58
2022/08/02 01:44:48;;;;;;;;;4.25;3.00;;;;;23.14;48.93;101278.69;5077613;27;45751;-58
2022/08/02 01:47:20;;;;;;;;;7.00;4.75;;;;;23.14;48.77;101276.03;5071258;28;45411;-58
2022/08/02 01:49:50;;;;;;;;;3.00;2.50;;;;;23.15;49.25;101279.56;5077422;28;46140;-58
2022/08/02 01:52:21;;;;;;;;;7.25;3.00;;;;;23.15;49.12;101276.91;5068975;27;45272;-57
2022/08/02 01:55:05;;;;;;;;;3.00;2.75;;;;;23.17;48.71;101272.31;5077765;28;45476;-58
2022/08/02 01:57:35;;;;;;;;;3.25;3.25;;;;;23.15;49.12;101280.41;5073144;27;46736;-58
2022/08/02 02:00:03;;;;;;;;;5.00;2.75;;;;;23.11;49.41;101270.94;5070063;27;47077;-58
2022/08/02 02:02:29;;;;;;;;;3.00;3.00;;;;;23.09;49.52;101272.88;5076874;28;45580;-57
2022/08/02 02:04:56;;;;;;;;;3.00;2.50;;;;;23.12;49.49;101270.81;5079876;27;45332;-58
2022/08/02 02:07:22;;;;;;;;;3.75;2.25;;;;;23.13;49.13;101266.34;5073847;27;60055;-58
2022/08/02 02:09:49;;;;;;;;;7.50;3.25;;;;;23.12;49.60;101264.63;5070283;28;45307;-58
2022/08/02 02:12:16;;;;;;;;;1.50;1.50;;;;;23.13;48.69;101267.19;5065876;27;45271;-58
2022/08/02 02:14:43;;;;;;;;;2.25;1.75;;;;;23.10;48.84;101258.53;5075554;27;45413;-58
2022/08/02 02:17:09;;;;;;;;;3.50;2.00;;;;;23.06;48.15;101259.72;5091570;27;45260;-58
2022/08/02 02:19:35;;;;;;;;;3.25;2.00;;;;;23.00;48.11;101250.31;5066437;28;45997;-58
2022/08/02 02:22:02;;;;;;;;;3.75;3.75;;;;;22.99;48.73;101253.09;5096643;27;45555;-58
2022/08/02 02:24:27;;;;;;;;;4.00;2.50;;;;;22.94;49.95;101254.25;5066475;28;45233;-58
2022/08/02 02:26:53;;;;;;;;;2.50;2.50;;;;;22.93;49.31;101249.03;5076748;27;69410;-58
2022/08/02 02:29:20;;;;;;;;;2.75;2.75;;;;;22.94;49.66;101248.06;5072231;28;74723;-58
2022/08/02 02:31:47;;;;;;;;;2.75;2.00;;;;;22.96;48.79;101247.97;5077474;27;45665;-58
2022/08/02 02:34:24;;;;;;;;;2.25;2.25;;;;;22.97;48.75;101252.34;5069051;28;65318;-58
2022/08/02 02:36:50;;;;;;;;;4.00;2.00;;;;;22.94;49.07;101248.06;5091551;27;45385;-58
2022/08/02 02:39:19;;;;;;;;;3.00;3.00;;;;;22.92;48.81;101250.00;5075743;27;61413;-58
2022/08/02 02:41:45;;;;;;;;;3.25;2.00;;;;;22.89;48.43;101247.53;5077588;27;45675;-58
2022/08/02 02:44:16;;;;;;;;;2.25;2.00;;;;;22.87;48.64;101252.97;5078680;27;51933;-59
2022/08/02 02:46:43;;;;;;;;;2.00;2.00;;;;;22.84;48.16;101250.53;5079169;27;45465;-58
2022/08/02 02:49:10;;;;;;;;;3.25;3.25;;;;;22.83;49.36;101248.81;5077917;28;57955;-58
2022/08/02 02:51:38;;;;;;;;;4.00;2.75;;;;;22.80;48.55;101251.72;5056682;28;45277;-58
2022/08/02 02:54:04;;;;;;;;;4.00;2.75;;;;;22.78;48.93;101247.44;5076672;28;45405;-59
2022/08/02 02:56:30;;;;;;;;;4.25;3.00;;;;;22.77;48.48;101245.72;5069049;27;45326;-59
2022/08/02 02:58:56;;;;;;;;;3.25;3.00;;;;;22.73;48.87;101242.44;5067212;27;62486;-58
2022/08/02 03:01:28;;;;;;;;;3.00;2.00;;;;;22.68;49.55;101240.09;5077933;28;45450;-58
2022/08/02 03:03:59;;;;;;;;;3.50;2.00;;;;;22.69;48.34;101235.59;5069414;27;45450;-59
2022/08/02 03:06:25;;;;;;;;;4.50;3.75;;;;;22.67;49.27;101235.72;5069745;28;45235;-58
2022/08/02 03:08:51;;;;;;;;;4.00;2.75;;;;;22.63;48.81;101242.22;5074244;27;45418;-58
2022/08/02 03:11:17;;;;;;;;;1.75;1.75;;;;;22.63;48.53;101236.03;5072647;27;46552;-58
2022/08/02 03:13:42;;;;;;;;;2.25;2.25;;;;;22.60;49.04;101234.44;5071821;27;45303;-58
2022/08/02 03:16:07;;;;;;;;;3.00;2.00;;;;;22.62;49.16;101240.50;5069257;28;45382;-58
2022/08/02 03:18:35;;;;;;;;;3.00;3.00;;;;;22.62;50.05;101237.84;5088060;27;68370;-58
2022/08/02 03:21:02;;;;;;;;;3.00;3.00;;;;;22.66;49.58;101241.16;5064231;27;45323;-58
2022/08/02 03:23:28;;;;;;;;;5.00;3.00;;;;;22.68;48.96;101240.09;5077441;28;45282;-58
2022/08/02 03:25:53;;;;;;;;;3.00;3.00;;;;;22.65;48.60;101240.31;5072960;28;60595;-58
2022/08/02 03:28:18;;;;;;;;;1.50;1.00;;;;;22.58;48.84;101236.38;5074271;28;60427;-59
2022/08/02 03:30:44;;;;;;;;;4.75;3.00;;;;;22.55;49.64;101234.75;5083436;27;51651;-58
2022/08/02 03:33:09;;;;;;;;;2.75;2.75;;;;;22.53;49.92;101239.34;5067088;27;49747;-59
2022/08/02 03:35:36;;;;;;;;;4.75;3.00;;;;;22.49;48.98;101235.19;5071600;27;45444;-59
2022/08/02 03:38:02;;;;;;;;;4.25;3.00;;;;;22.47;49.13;101237.13;5075030;27;46003;-58
2022/08/02 03:40:27;;;;;;;;;3.50;3.50;;;;;22.42;49.35;101227.72;5066155;28;67422;-58
2022/08/02 03:42:53;;;;;;;;;3.50;3.00;;;;;22.40;49.96;101232.28;5064821;28;64803;-58
2022/08/02 03:45:19;;;;;;;;;3.00;3.00;;;;;22.40;49.73;101232.28;5075929;27;45441;-58
2022/08/02 03:47:45;;;;;;;;;5.50;4.00;;;;;22.38;49.53;101235.06;5063580;27;74739;-59
2022/08/02 03:50:12;;;;;;;;;2.75;2.00;;;;;22.35;49.19;101232.63;5071693;27;53377;-59
2022/08/02 03:52:40;;;;;;;;;3.00;3.00;;;;;22.35;49.00;101225.47;5066471;27;45349;-58
2022/08/02 03:55:06;;;;;;;;;5.00;3.00;;;;;22.32;49.23;101222.16;5070279;28;45513;-59
2022/08/02 03:57:32;;;;;;;;;3.00;3.00;;;;;22.31;49.85;101225.78;5068091;28;45248;-58
2022/08/02 03:59:57;;;;;;;;;2.75;2.00;;;;;22.31;50.02;101226.66;5070578;28;45391;-59
2022/08/02 04:02:23;;;;;;;;;3.00;3.00;;;;;22.32;49.16;101220.34;5070283;28;69518;-58
2022/08/02 04:04:48;;;;;;;;;3.25;3.25;;;;;22.31;49.69;101221.31;5077227;27;70108;-59
2022/08/02 04:07:13;;;;;;;;;3.50;3.00;;;;;22.32;49.15;101219.50;5073206;27;67292;-59
2022/08/02 04:09:38;;;;;;;;;3.25;3.00;;;;;22.30;49.83;101222.25;5070586;28;66220;-58
2022/08/02 04:12:04;;;;;;;;;3.00;3.00;;;;;22.27;49.38;101217.13;5076649;27;60299;-58
2022/08/02 04:14:30;;;;;;;;;3.50;3.50;;;;;22.26;49.50;101227.91;5073323;28;45346;-59
2022/08/02 04:17:01;;;;;;;;;5.00;3.50;;;;;22.27;49.25;101227.78;5072562;27;45363;-59
2022/08/02 04:19:42;;;;;;;;;3.00;3.00;;;;;22.23;49.70;101223.59;5069137;28;45378;-59
2022/08/02 04:22:27;;;;;;;;;3.75;3.00;;;;;22.26;49.51;101222.56;5073119;27;45314;-58
2022/08/02 04:25:01;;;;;;;;;2.25;2.00;;;;;22.30;49.90;101229.41;5077501;27;45248;-58
2022/08/02 04:27:27;;;;;;;;;3.75;2.25;;;;;22.30;49.90;101222.25;5063359;28;46810;-58
2022/08/02 04:29:53;;;;;;;;;2.25;2.25;;;;;22.29;49.68;101217.03;5075058;27;45484;-58
2022/08/02 04:32:20;;;;;;;;;5.75;2.75;;;;;22.25;49.15;101218.19;5066434;28;45395;-58
2022/08/02 04:34:46;;;;;;;;;6.75;2.75;;;;;22.19;49.60;101217.63;5066323;27;45530;-59
2022/08/02 04:37:11;;;;;;;;;3.50;2.00;;;;;22.26;49.45;101230.56;5073930;28;45650;-58
2022/08/02 04:39:38;;;;;;;;;4.25;3.00;;;;;22.27;49.70;101232.28;5073660;27;45241;-58
2022/08/02 04:42:03;;;;;;;;;2.00;2.00;;;;;22.28;50.02;101229.50;5064950;28;45371;-58
2022/08/02 04:44:29;;;;;;;;;4.50;3.00;;;;;22.35;49.85;101227.28;5077808;27;45444;-58
2022/08/02 04:46:55;;;;;;;;;2.50;2.50;;;;;22.37;49.08;101226.22;5069997;27;52963;-59
2022/08/02 04:49:20;;;;;;;;;4.00;2.25;;;;;22.39;49.25;101233.25;5074279;27;45276;-59
2022/08/02 04:51:46;;;;;;;;;3.00;3.00;;;;;22.35;49.27;101229.97;5067679;28;67291;-59
2022/08/02 04:54:11;;;;;;;;;4.25;3.00;;;;;22.33;49.58;101226.53;5080333;27;60451;-59
2022/08/02 04:56:37;;;;;;;;;3.25;3.00;;;;;22.30;49.70;101230.25;5074364;28;45339;-59
2022/08/02 04:59:03;;;;;;;;;5.50;3.00;;;;;22.29;49.73;101225.03;5078304;27;45275;-58
2022/08/02 05:01:28;;;;;;;;;6.75;3.50;;;;;22.25;49.26;101228.84;5071679;28;45266;-59
2022/08/02 05:03:53;;;;;;;;;4.25;4.00;;;;;22.19;49.82;101233.63;5072665;27;45390;-59
2022/08/02 05:06:19;;;;;;;;;3.00;2.50;;;;;22.16;49.66;101236.50;5070428;28;46253;-58
2022/08/02 05:08:46;;;;;;;;;4.25;3.50;;;;;22.17;49.76;101232.88;5079412;27;65046;-58
2022/08/02 05:11:11;;;;;;;;;3.00;1.50;;;;;22.19;49.56;101230.13;5068959;28;45410;-58
2022/08/02 05:13:36;;;;;;;;;3.50;2.75;;;;;22.21;49.75;101232.69;5066523;27;72086;-59
2022/08/02 05:16:03;;;;;;;;;3.25;3.25;;;;;22.22;50.41;101237.88;5065191;28;75948;-58
2022/08/02 05:18:29;;;;;;;;;2.50;2.50;;;;;22.26;50.46;101234.06;5070714;28;45839;-59
2022/08/02 05:20:54;;;;;;;;;2.50;2.50;;;;;22.33;48.99;101224.72;5081464;27;45408;-58
2022/08/02 05:23:19;;;;;;;;;5.50;3.00;;;;;22.36;49.42;101235.19;5069723;27;72773;-59
2022/08/02 05:25:45;;;;;;;;;4.50;3.75;;;;;22.34;49.63;101229.06;5072673;27;46427;-59
2022/08/02 05:28:10;;;;;;;;;3.50;2.00;;;;;22.31;49.55;101237.31;5068848;27;64726;-59
2022/08/02 05:30:36;;;;;;;;;3.00;3.00;;;;;22.29;49.48;101238.34;5078486;27;45398;-59
2022/08/02 05:33:01;;;;;;;;;4.50;3.00;;;;;22.28;49.65;101239.34;5072024;27;68158;-59
2022/08/02 05:35:26;;;;;;;;;4.75;4.75;;;;;22.28;49.46;101245.50;5069442;28;67806;-43
2022/08/02 05:37:52;;;;;;;;;4.00;4.00;;;;;22.28;49.74;101240.19;5080516;28;45363;-42
2022/08/02 05:40:18;;;;;;;;;6.50;5.00;;;;;22.35;49.41;101245.97;5070718;28;45548;-42
2022/08/02 05:42:43;;;;;;;;;5.00;4.75;;;;;22.35;49.60;101246.81;5076153;27;45532;-44
2022/08/02 05:45:09;;;;;;;;;8.50;4.75;;;;;22.32;49.46;101249.66;5097327;27;47097;-44
2022/08/02 05:47:35;;;;;;;;;5.00;4.75;;;;;22.29;49.34;101249.03;5079040;28;45401;-43
2022/08/02 05:50:00;;;;;;;;;5.00;4.75;;;;;22.23;49.44;101242.28;5063475;28;45433;-42
2022/08/02 05:52:35;;;;;;;;;4.25;4.25;;;;;22.19;49.73;101246.13;5071780;27;46193;-41
2022/08/02 05:55:08;;;;;;;;;8.00;6.50;;;;;22.19;49.71;101240.78;5093455;27;46622;-43
2022/08/02 05:57:52;;;;;;;;;6.25;5.75;;;;;22.21;49.51;101244.19;5059145;28;45780;-42
2022/08/02 06:00:19;;;;;;;;;6.25;4.00;;;;;22.22;49.50;101247.69;5073442;27;45310;-43
2022/08/02 06:03:22;;;;;;;;;5.50;4.00;;;;;22.24;49.95;101240.44;5079674;27;45298;-44
2022/08/02 06:05:54;;;;;;;;;5.25;3.00;;;;;22.22;49.47;101243.22;5068150;27;46962;-42
2022/08/02 06:08:24;;;;;;;;;6.50;4.75;;;;;22.19;49.58;101244.28;5071841;28;45469;-43
2022/08/02 06:10:50;;;;;;;;;8.25;6.25;;;;;22.17;49.75;101240.88;5079711;28;45398;-41
2022/08/02 06:13:16;;;;;;;;;7.00;5.50;;;;;22.17;49.65;101235.56;5068994;27;45289;-50
2022/08/02 06:15:41;;;;;;;;;3.50;3.50;;;;;22.19;49.92;101238.13;5070570;27;45298;-46
2022/08/02 06:18:07;;;;;;;;;8.50;5.25;;;;;22.21;49.66;101246.84;5065135;28;45207;-47
2022/08/02 06:20:34;;;;;;;;;5.50;5.00;;;;;22.23;49.77;101239.59;5079264;27;45334;-49
2022/08/02 06:23:04;;;;;;;;;6.00;4.75;;;;;22.25;49.96;101236.84;5076900;27;45291;-51
2022/08/02 06:25:32;;;;;;;;;4.00;3.75;;;;;22.27;49.75;101242.94;5073025;28;46215;-48
2022/08/02 06:28:04;;;;;;;;;4.75;4.00;;;;;22.27;49.85;101250.94;5070548;28;45625;-47
2022/08/02 06:30:31;;;;;;;;;5.50;5.00;;;;;22.30;49.65;101248.06;5063695;28;45472;-50
2022/08/02 06:32:56;;;;;;;;;5.75;4.50;;;;;22.30;49.93;101254.25;5076855;28;45565;-48
2022/08/02 06:35:34;;;;;;;;;6.50;4.00;;;;;22.31;50.11;101249.75;5073395;27;46057;-48
2022/08/02 06:38:00;;;;;;;;;3.75;3.00;;;;;22.33;49.53;101247.88;5075544;27;45330;-47
2022/08/02 06:40:47;;;;;;;;;3.00;3.00;;;;;22.35;49.39;101253.97;5078285;27;45334;-47
2022/08/02 06:43:20;;;;;;;;;4.50;3.00;;;;;22.41;49.41;101247.34;5061999;28;45423;-53
2022/08/02 06:45:46;;;;;;;;;3.25;3.25;;;;;22.44;49.45;101258.66;5092261;27;45674;-54
2022/08/02 06:48:11;;;;;;;;;3.00;3.00;;;;;22.50;49.26;101258.22;5060537;27;45364;-50
2022/08/02 06:50:37;;;;;;;;;5.00;4.00;;;;;22.55;48.99;101258.75;5061672;28;45890;-47
2022/08/02 06:53:04;;;;;;;;;6.50;5.00;;;;;22.60;48.97;101263.78;5064492;28;45445;-47
2022/08/02 06:55:31;;;;;;;;;4.25;3.75;;;;;22.64;48.86;101261.75;5079322;27;46222;-48
2022/08/02 06:57:56;;;;;;;;;5.25;4.25;;;;;22.66;48.85;101265.16;5080240;27;45453;-48
2022/08/02 07:00:22;;;;;;;;;6.50;4.25;;;;;22.72;48.94;101268.25;5079577;28;45422;-48
2022/08/02 07:02:48;;;;;;;;;9.75;6.50;;;;;22.80;48.80;101274.88;5080553;27;45282;-49
2022/08/02 07:05:13;;;;;;;;;6.00;3.00;;;;;22.82;48.38;101273.78;5080054;27;45362;-48
2022/08/02 07:07:38;;;;;;;;;3.50;3.00;;;;;22.85;48.67;101276.25;5080239;27;45292;-48
2022/08/02 07:10:04;;;;;;;;;3.50;3.50;;;;;22.83;48.42;101280.84;5080137;27;45318;-48
2022/08/02 07:12:31;;;;;;;;;4.75;2.00;;;;;22.87;48.35;101282.34;5074225;28;46710;-51
2022/08/02 07:14:58;;;;;;;;;5.00;3.00;;;;;22.91;48.40;101280.31;5071835;28;46391;-54
2022/08/02 07:17:24;;;;;;;;;4.00;4.00;;;;;22.95;48.22;101287.16;5078876;27;45267;-51
2022/08/02 07:19:49;;;;;;;;;5.50;4.75;;;;;22.99;48.28;101277.13;5079973;27;45238;-52
2022/08/02 07:22:17;;;;;;;;;3.75;3.25;;;;;23.02;48.02;101266.19;5077537;27;70143;-53
2022/08/02 07:24:42;;;;;;;;;5.00;5.00;;;;;23.07;48.40;101277.44;5080031;27;46335;-49
2022/08/02 07:27:08;;;;;;;;;7.00;4.50;;;;;23.12;47.65;101264.63;5075641;27;45504;-51
2022/08/02 07:29:33;;;;;;;;;4.00;4.00;;;;;23.17;47.64;101266.97;5067717;28;69245;-51
2022/08/02 07:31:58;;;;;;;;;6.75;3.50;;;;;23.24;47.70;101282.44;5061167;28;45331;-51
2022/08/02 07:34:24;;;;;;;;;3.75;3.50;;;;;23.30;47.63;101283.78;5060416;27;64757;-51
2022/08/02 07:36:49;;;;;;;;;3.00;3.00;;;;;23.32;47.34;101289.91;5070243;27;45347;-53
2022/08/02 07:39:14;;;;;;;;;3.00;3.00;;;;;23.34;47.65;101287.97;5073235;27;45284;-47
2022/08/02 07:41:40;;;;;;;;;5.50;4.00;;;;;23.38;47.37;101285.94;5065431;28;72866;-48
2022/08/02 07:44:05;;;;;;;;;6.00;4.00;;;;;23.43;47.21;101279.28;5079538;28;46222;-53
2022/08/02 07:46:32;;;;;;;;;7.25;5.00;;;;;23.48;47.27;101284.31;5073370;27;45387;-47
2022/08/02 07:48:57;;;;;;;;;2.75;2.75;;;;;23.52;47.22;101282.25;5064911;28;45438;-47
2022/08/02 07:51:22;;;;;;;;;3.25;3.25;;;;;23.56;46.97;101287.25;5079355;27;45685;-50
2022/08/02 07:53:48;;;;;;;;;9.50;3.50;;;;;23.59;46.56;101284.38;5078878;27;60188;-53
2022/08/02 07:56:13;;;;;;;;;4.25;2.75;;;;;23.63;46.75;101279.66;5068957;27;45209;-52
2022/08/02 07:58:40;;;;;;;;;2.75;2.75;;;;;23.66;46.89;101274.94;5079590;27;45232;-51
2022/08/02 08:01:05;;;;;;;;;6.50;5.00;;;;;23.70;46.41;101276.41;5063255;27;45401;-50
2022/08/02 08:03:31;;;;;;;;;7.25;3.00;;;;;23.75;46.62;101277.91;5063196;28;75076;-51
2022/08/02 08:05:56;;;;;;;;;5.50;4.00;;;;;23.80;46.71;101281.09;5068289;27;51749;-51
2022/08/02 08:08:22;;;;;;;;;9.75;8.25;;;;;23.85;46.75;101278.94;5079401;27;45414;-48
2022/08/02 08:10:47;;;;;;;;;3.75;2.25;;;;;23.90;46.44;101281.28;5061642;27;60902;-48
2022/08/02 08:13:13;;;;;;;;;5.00;2.25;;;;;23.95;46.14;101276.44;5063119;28;45606;-48
2022/08/02 08:15:38;;;;;;;;;6.00;3.50;;;;;23.97;46.35;101275.34;5072990;28;45509;-48
2022/08/02 08:18:04;;;;;;;;;6.75;4.00;;;;;24.03;46.39;101280.25;5073936;28;45453;-49
2022/08/02 08:20:29;;;;;;;;;5.25;4.75;;;;;24.10;46.14;101283.31;5072520;27;67915;-51
2022/08/02 08:22:54;;;;;;;;;5.00;4.50;;;;;24.14;45.95;101278.59;5072675;28;46073;-51
2022/08/02 08:25:20;;;;;;;;;4.25;3.00;;;;;24.17;45.88;101278.31;5059685;28;45338;-49
2022/08/02 08:27:50;;;;;;;;;7.25;4.00;;;;;24.20;46.18;101280.78;5070364;28;68526;-48
2022/08/02 08:30:15;;;;;;;;;4.00;3.25;;;;;24.25;45.98;101273.25;5063450;27;45589;-50
2022/08/02 08:32:41;;;;;;;;;5.00;3.00;;;;;24.31;46.10;101263.91;5074326;27;46341;-50
2022/08/02 08:35:07;;;;;;;;;6.25;3.00;;;;;24.38;45.57;101267.81;5074292;27;66413;-50
2022/08/02 08:37:34;;;;;;;;;3.25;3.25;;;;;24.42;45.69;101262.13;5069814;27;45403;-49
2022/08/02 08:39:59;;;;;;;;;4.00;2.50;;;;;24.44;45.80;101259.31;5066458;28;45256;-47
2022/08/02 08:42:26;;;;;;;;;3.00;2.75;;;;;24.54;45.55;101260.34;5067919;28;72263;-48
2022/08/02 08:44:51;;;;;;;;;5.75;4.00;;;;;24.58;44.85;101255.63;5078918;27;45536;-48
2022/08/02 08:47:16;;;;;;;;;9.00;8.00;;;;;24.63;44.78;101262.31;5077411;27;62035;-49
2022/08/02 08:49:44;;;;;;;;;3.75;2.50;;;;;24.66;45.22;101255.84;5068097;28;46058;-53
2022/08/02 08:52:10;;;;;;;;;5.75;2.75;;;;;24.72;44.66;101258.06;5078668;28;46388;-49
2022/08/02 08:54:37;;;;;;;;;10.00;3.25;;;;;24.75;44.75;101262.31;5079009;27;45674;-52
2022/08/02 08:57:04;;;;;;;;;5.25;4.25;;;;;24.80;44.53;101262.81;5072979;28;46501;-47
2022/08/02 08:59:30;;;;;;;;;3.25;3.25;;;;;24.84;44.37;101264.25;5088505;27;45449;-49
2022/08/02 09:01:56;;;;;;;;;8.50;4.25;;;;;24.89;44.21;101258.53;5061857;28;70451;-47
2022/08/02 09:04:21;;;;;;;;;4.00;3.00;;;;;24.92;44.45;101264.50;5063825;27;63641;-47
2022/08/02 09:06:47;;;;;;;;;3.00;3.00;;;;;24.98;44.16;101260.47;5066830;28;45268;-47
2022/08/02 09:09:12;;;;;;;;;4.00;2.00;;;;;25.05;44.21;101260.84;5076153;27;45426;-46
2022/08/02 09:11:37;;;;;;;;;5.00;4.00;;;;;25.11;44.01;101257.69;5067515;28;45228;-48
2022/08/02 09:14:03;;;;;;;;;6.00;5.00;;;;;25.16;44.15;101256.34;5069843;28;45370;-47
2022/08/02 09:16:40;;;;;;;;;4.75;3.00;;;;;25.24;43.83;101244.16;5070906;28;45188;-48
2022/08/02 09:19:25;;;;;;;;;3.25;3.25;;;;;25.33;44.14;101243.44;5074235;28;45584;-51
2022/08/02 09:22:00;;;;;;;;;5.50;3.25;;;;;25.44;43.71;101250.59;5096538;27;47013;-50
2022/08/02 09:24:25;;;;;;;;;6.50;4.00;;;;;25.53;43.61;101255.19;5080530;27;45660;-52
2022/08/02 09:26:51;;;;;;;;;6.00;4.50;;;;;25.64;43.35;101247.13;5081475;27;45416;-50
2022/08/02 09:29:23;;;;;;;;;6.00;4.25;;;;;25.76;43.00;101243.44;5074565;28;45145;-53
2022/08/02 09:31:49;;;;;;;;;5.75;4.00;;;;;25.91;42.78;101245.81;5074723;27;46258;-52
2022/08/02 09:34:14;;;;;;;;;5.50;4.25;;;;;26.06;42.77;101241.84;5071603;27;45255;-49
2022/08/02 09:36:44;;;;;;;;;4.00;3.50;;;;;26.25;42.72;101249.19;5075049;27;45381;-52
2022/08/02 09:39:11;;;;;;;;;4.25;4.00;;;;;26.45;42.53;101246.63;5076262;27;45357;-47
2022/08/02 09:41:42;;;;;;;;;5.50;3.00;;;;;26.64;42.36;101243.25;5073609;28;45480;-51
2022/08/02 09:44:10;;;;;;;;;2.75;2.50;;;;;26.87;42.13;101246.59;5077525;27;45248;-47
2022/08/02 09:46:53;;;;;;;;;3.75;3.75;;;;;27.13;41.96;101238.91;5076180;27;45415;-47
2022/08/02 09:49:19;;;;;;;;;7.50;5.00;;;;;27.36;40.78;101242.25;5080390;27;53440;-48
2022/08/02 09:51:45;;;;;;;;;9.50;7.75;;;;;27.63;41.11;101238.03;5071291;28;46077;-48
2022/08/02 09:54:15;;;;;;;;;7.75;4.00;;;;;28.00;40.75;101229.28;5068102;27;45711;-51
2022/08/02 09:56:48;;;;;;;;;7.25;7.25;;;;;28.59;39.76;101228.16;5076712;27;45446;-56
2022/08/02 09:59:14;;;;;;;;;4.50;3.75;;;;;29.67;38.04;101222.19;5078976;27;45225;-52
2022/08/02 10:01:41;;;;;;;;;5.50;3.50;;;;;30.95;35.91;101226.16;5081563;27;46221;-53
2022/08/02 10:04:10;;;;;;;;;9.75;4.75;;;;;32.24;35.27;101227.50;5077946;27;45689;-53
2022/08/02 10:06:38;;;;;;;;;5.00;3.00;;;;;33.56;35.32;101221.56;5092601;27;45360;-49
2022/08/02 10:09:05;;;;;;;;;6.25;4.75;;;;;34.71;31.97;101217.81;5079969;27;45434;-50
2022/08/02 10:11:31;;;;;;;;;3.75;3.00;;;;;35.79;30.19;101221.56;5071872;28;46329;-51
2022/08/02 10:13:57;;;;;;;;;7.25;5.25;;;;;36.84;30.03;101213.47;5077965;27;45299;-52
2022/08/02 10:16:23;;;;;;;;;3.00;3.00;;;;;37.82;28.20;101218.53;5080949;27;45278;-53
2022/08/02 10:18:53;;;;;;;;;3.00;2.25;;;;;38.62;23.73;101214.88;5084995;27;45372;-52
2022/08/02 10:21:28;;;;;;;;;4.00;3.25;;;;;39.12;25.03;101212.34;5069856;28;45269;-55
2022/08/02 10:24:04;;;;;;;;;3.25;3.25;;;;;39.66;26.12;101213.66;5065200;28;45363;-53
2022/08/02 10:26:30;;;;;;;;;14.75;6.00;;;;;40.26;24.96;101212.31;5068505;28;45310;-52
2022/08/02 10:28:55;;;;;;;;;7.00;3.50;;;;;40.82;22.48;101221.41;5072548;28;45426;-54
2022/08/02 10:31:24;;;;;;;;;6.75;3.00;;;;;41.37;23.94;101214.97;5078486;27;46908;-50
2022/08/02 10:33:51;;;;;;;;;4.50;3.75;;;;;41.82;23.06;101214.44;5087170;27;45845;-51
2022/08/02 10:36:18;;;;;;;;;3.75;3.75;;;;;42.21;21.66;101217.56;5063265;28;45472;-54
2022/08/02 10:38:44;;;;;;;;;3.25;2.00;;;;;42.42;20.23;101207.84;5077086;27;45510;-52
2022/08/02 10:41:10;;;;;;;;;1.75;1.00;;;;;42.60;20.85;101203.28;5076447;27;46520;-52
2022/08/02 10:43:36;;;;;;;;;6.00;6.00;;;;;42.90;22.41;101210.47;5071980;27;45221;-52
2022/08/02 10:46:34;;;;;;;;;4.33;2.00;;;;;43.17;19.91;101213.47;5075515;27;45351;-51
2022/08/02 10:49:01;;;;;;;;;4.00;2.00;;;;;43.35;21.26;101205.03;5068051;28;45505;-49
2022/08/02 10:51:57;;;;;;;;;5.75;2.00;;;;;43.50;20.60;101215.47;5079169;27;46308;-49
2022/08/02 10:54:28;;;;;;;;;3.25;3.25;;;;;43.74;19.31;101212.56;5057859;27;45738;-51
2022/08/02 10:56:55;;;;;;;;;3.00;3.00;;;;;43.99;19.80;101206.63;5061945;28;45426;-52
2022/08/02 10:59:27;;;;;;;;;4.25;4.25;;;;;44.26;19.97;101205.91;5079187;28;45338;-51
2022/08/02 11:02:01;;;;;;;;;2.00;2.00;;;;;44.48;19.60;101200.38;5074885;27;46568;-50
2022/08/02 11:04:52;;;;;;;;;3.00;3.00;;;;;44.69;18.38;101207.81;5068451;27;45169;-53
2022/08/02 11:07:31;;;;;;;;;3.00;3.00;;;;;44.76;18.87;101204.06;5073294;28;45683;-53
2022/08/02 11:09:59;;;;;;;;;3.25;3.25;;;;;44.80;17.61;101195.00;5064888;28;45295;-51
2022/08/02 11:12:26;;;;;;;;;4.25;3.00;;;;;44.86;18.67;101195.88;5066264;28;47031;-53
2022/08/02 11:15:03;;;;;;;;;2.25;2.25;;;;;44.85;19.35;101192.25;5080395;27;45475;-51
2022/08/02 11:17:52;;;;;;;;;3.00;3.00;;;;;44.79;18.19;101196.06;5075915;27;45137;-51
2022/08/02 11:20:19;;;;;;;;;2.00;1.25;;;;;44.69;18.20;101194.03;5080225;27;45230;-53
2022/08/02 11:22:46;;;;;;;;;4.00;4.00;;;;;44.64;18.56;101194.00;5076790;27;46809;-52
2022/08/02 11:25:21;;;;;;;;;2.50;2.00;;;;;44.48;18.40;101183.81;5078202;28;45670;-52
2022/08/02 11:27:51;;;;;;;;;2.50;2.50;;;;;44.31;15.84;101176.44;5071224;27;45304;-52